createdAt,value
2022-08-11T00:02:33.395Z,3.80
2022-08-11T00:05:07.364Z,3.75
2022-08-11T00:10:05.178Z,4.55
2022-08-11T00:15:03.167Z,4.13
2022-08-11T00:17:36.617Z,4.15
2022-08-11T00:20:11.994Z,3.88
2022-08-11T00:22:47.566Z,4.43
2022-08-11T00:27:48.090Z,4.20
2022-08-11T00:30:17.216Z,3.33
2022-08-11T00:32:54.814Z,4.20
2022-08-11T00:35:54.533Z,3.95
2022-08-11T00:38:18.782Z,3.97
2022-08-11T00:40:56.263Z,4.53
2022-08-11T00:46:16.118Z,3.80
2022-08-11T00:49:01.819Z,3.90
2022-08-11T00:52:02.265Z,4.00
2022-08-11T00:55:03.856Z,3.80
2022-08-11T01:03:48.186Z,3.75
2022-08-11T01:06:40.407Z,3.78
2022-08-11T01:09:23.065Z,3.63
2022-08-11T01:12:33.620Z,4.15
2022-08-11T01:15:37.914Z,4.13
2022-08-11T01:18:46.352Z,3.97
2022-08-11T01:24:52.720Z,3.75
2022-08-11T01:27:46.966Z,4.45
2022-08-11T01:31:00.245Z,3.42
2022-08-11T01:34:09.361Z,3.88
2022-08-11T01:37:04.703Z,3.53
2022-08-11T01:43:11.829Z,3.83
2022-08-11T01:45:48.579Z,3.78
2022-08-11T01:51:09.973Z,5.13
2022-08-11T01:53:59.230Z,3.78
2022-08-11T01:56:47.792Z,3.97
2022-08-11T02:02:44.901Z,3.80
2022-08-11T02:05:24.404Z,4.20
2022-08-11T02:07:59.309Z,3.70
2022-08-11T02:10:54.646Z,3.65
2022-08-11T02:13:37.303Z,3.97
2022-08-11T02:19:08.275Z,4.35
2022-08-11T02:22:05.068Z,4.10
2022-08-11T02:27:17.628Z,3.70
2022-08-11T02:29:52.289Z,3.53
2022-08-11T02:32:43.307Z,4.05
2022-08-11T02:35:19.046Z,4.18
2022-08-11T02:37:56.653Z,3.95
2022-08-11T02:40:32.516Z,3.95
2022-08-11T02:45:57.970Z,4.22
2022-08-11T02:48:55.478Z,3.47
2022-08-11T02:51:31.351Z,3.67
2022-08-11T02:54:08.087Z,4.03
2022-08-11T02:56:46.238Z,3.72
2022-08-11T03:02:21.459Z,3.90
2022-08-11T03:05:01.279Z,4.05
2022-08-11T03:07:36.734Z,3.97
2022-08-11T03:10:14.819Z,3.65
2022-08-11T03:13:08.504Z,4.43
2022-08-11T03:16:10.989Z,4.10
2022-08-11T03:18:46.519Z,4.35
2022-08-11T03:22:01.605Z,4.65
2022-08-11T03:24:22.714Z,4.50
2022-08-11T03:27:04.667Z,4.45
2022-08-11T03:29:38.889Z,4.13
2022-08-11T03:32:21.177Z,4.38
2022-08-11T03:34:50.959Z,4.30
2022-08-11T03:37:53.554Z,3.65
2022-08-11T03:43:58.059Z,4.03
2022-08-11T03:46:45.344Z,4.53
2022-08-11T03:49:29.357Z,3.95
2022-08-11T03:54:46.907Z,4.18
2022-08-11T03:57:50.077Z,4.88
2022-08-11T04:00:30.844Z,5.13
2022-08-11T04:03:51.449Z,4.80
2022-08-11T04:06:58.082Z,5.18
2022-08-11T04:10:08.147Z,4.22
2022-08-11T04:12:58.398Z,4.53
2022-08-11T04:16:11.303Z,5.00
2022-08-11T04:19:40.052Z,4.55
2022-08-11T04:22:50.955Z,4.90
2022-08-11T04:25:58.640Z,4.60
2022-08-11T04:28:51.094Z,4.10
2022-08-11T04:31:51.856Z,4.78
2022-08-11T04:34:50.365Z,4.30
2022-08-11T04:37:53.506Z,4.50
2022-08-11T04:40:56.124Z,4.68
2022-08-11T04:44:05.879Z,4.28
2022-08-11T04:46:51.522Z,5.15
2022-08-11T04:50:10.912Z,4.50
2022-08-11T04:53:45.079Z,4.80
2022-08-11T04:56:42.980Z,4.30
2022-08-11T05:00:06.983Z,4.50
2022-08-11T05:03:07.097Z,4.63
2022-08-11T05:06:03.749Z,4.82
2022-08-11T05:09:10.480Z,4.60
2022-08-11T05:12:07.165Z,4.93
2022-08-11T05:14:54.740Z,4.53
2022-08-11T05:17:55.015Z,4.93
2022-08-11T05:23:31.513Z,5.15
2022-08-11T05:26:47.439Z,5.10
2022-08-11T05:29:46.160Z,4.57
2022-08-11T05:32:35.817Z,5.22
2022-08-11T05:35:07.564Z,5.20
2022-08-11T05:37:42.448Z,6.18
2022-08-11T05:40:30.516Z,5.90
2022-08-11T05:43:18.926Z,6.40
2022-08-11T05:46:16.082Z,5.53
2022-08-11T05:49:02.723Z,6.10
2022-08-11T05:51:55.395Z,5.65
2022-08-11T05:54:46.623Z,5.70
2022-08-11T05:57:43.866Z,5.72
2022-08-11T06:00:12.134Z,5.40
2022-08-11T06:02:47.770Z,5.18
2022-08-11T06:05:19.509Z,6.80
2022-08-11T06:07:50.167Z,6.07
2022-08-11T06:10:28.717Z,5.25
2022-08-11T06:12:58.314Z,5.70
2022-08-11T06:15:27.615Z,6.20
2022-08-11T06:17:58.726Z,5.03
2022-08-11T06:20:27.449Z,5.80
2022-08-11T06:23:03.751Z,5.13
2022-08-11T06:28:06.468Z,4.85
2022-08-11T06:30:39.783Z,5.55
2022-08-11T06:33:12.052Z,4.97
2022-08-11T06:35:48.466Z,4.88
2022-08-11T06:38:29.268Z,5.40
2022-08-11T06:41:20.070Z,4.20
2022-08-11T06:46:28.633Z,4.47
2022-08-11T06:51:27.985Z,4.00
2022-08-11T06:54:05.409Z,3.83
2022-08-11T07:00:01.560Z,4.03
2022-08-11T07:02:34.840Z,3.75
2022-08-11T07:05:09.598Z,3.55
2022-08-11T07:08:36.049Z,3.97
2022-08-11T07:11:55.842Z,3.17
2022-08-11T07:14:45.649Z,3.20
2022-08-11T07:17:18.134Z,4.65
2022-08-11T07:20:10.390Z,3.60
2022-08-11T07:22:58.261Z,3.95
2022-08-11T07:25:44.693Z,3.97
2022-08-11T07:31:09.136Z,3.47
2022-08-11T07:34:05.717Z,3.35
2022-08-11T07:36:33.150Z,3.42
2022-08-11T07:39:03.894Z,3.70
2022-08-11T07:41:35.700Z,3.67
2022-08-11T07:44:09.902Z,3.22
2022-08-11T07:46:58.481Z,3.05
2022-08-11T07:49:45.673Z,2.78
2022-08-11T07:52:33.699Z,3.30
2022-08-11T07:55:06.402Z,3.33
2022-08-11T07:58:16.839Z,3.10
2022-08-11T08:01:10.131Z,2.90
2022-08-11T08:03:57.504Z,3.28
2022-08-11T08:06:45.323Z,2.80
2022-08-11T08:09:30.888Z,3.55
2022-08-11T08:12:20.711Z,2.80
2022-08-11T08:15:06.335Z,2.88
2022-08-11T08:18:09.376Z,2.88
2022-08-11T08:20:47.334Z,3.25
2022-08-11T08:23:15.776Z,2.55
2022-08-11T08:25:46.386Z,3.17
2022-08-11T08:28:18.638Z,3.03
2022-08-11T08:33:22.322Z,3.05
2022-08-11T08:36:11.573Z,2.75
2022-08-11T08:38:41.559Z,3.33
2022-08-11T08:41:13.302Z,2.78
2022-08-11T08:43:49.571Z,2.72
2022-08-11T08:46:23.380Z,2.90
2022-08-11T08:51:54.723Z,2.92
2022-08-11T08:54:35.570Z,3.50
2022-08-11T08:59:48.421Z,3.10
2022-08-11T09:02:33.524Z,3.22
2022-08-11T09:05:04.573Z,2.80
2022-08-11T09:07:39.476Z,2.65
2022-08-11T09:15:13.052Z,2.75
2022-08-11T09:17:43.123Z,3.40
2022-08-11T09:20:14.464Z,3.05
2022-08-11T09:26:09.627Z,3.60
2022-08-11T09:28:38.157Z,2.88
2022-08-11T09:31:08.271Z,3.40
2022-08-11T09:33:37.271Z,3.38
2022-08-11T09:39:09.737Z,3.20
2022-08-11T09:41:55.564Z,3.28
2022-08-11T09:44:46.810Z,3.38
2022-08-11T09:47:24.486Z,3.00
2022-08-11T09:52:24.976Z,3.25
2022-08-11T09:54:54.458Z,3.83
2022-08-11T09:57:41.426Z,3.33
2022-08-11T10:00:13.376Z,3.25
2022-08-11T10:08:08.493Z,3.03
2022-08-11T10:16:14.686Z,2.95
2022-08-11T10:18:53.343Z,2.83
2022-08-11T10:21:35.000Z,3.50
2022-08-11T10:32:32.006Z,2.85
2022-08-11T10:48:21.285Z,3.25
2022-08-11T10:59:11.971Z,2.75
2022-08-11T11:12:21.497Z,2.63
2022-08-11T11:15:09.843Z,2.60
2022-08-11T11:18:04.685Z,2.35
2022-08-11T11:29:03.019Z,3.00
2022-08-11T11:31:44.411Z,2.40
2022-08-11T11:36:52.908Z,2.38
2022-08-11T11:39:24.345Z,2.50
2022-08-11T11:41:56.134Z,2.45
2022-08-11T11:44:25.478Z,2.55
2022-08-11T11:46:56.610Z,2.50
2022-08-11T12:05:07.764Z,2.53
2022-08-11T12:16:32.266Z,2.60
2022-08-11T12:18:30.884Z,3.25
2022-08-11T12:23:44.926Z,2.60
2022-08-11T14:13:13.485Z,2.30
2022-08-11T15:11:32.374Z,2.45
2022-08-11T15:54:52.987Z,2.20
2022-08-11T16:00:27.491Z,2.55
2022-08-11T16:43:17.370Z,2.60
2022-08-11T16:51:08.442Z,2.85
2022-08-11T17:42:22.206Z,2.97
2022-08-11T18:06:34.474Z,3.10
2022-08-11T18:09:22.730Z,2.83
2022-08-11T18:23:20.655Z,4.63
2022-08-11T18:28:58.018Z,3.00
2022-08-11T18:31:44.889Z,2.25
2022-08-11T18:34:39.429Z,2.70
2022-08-11T18:43:06.739Z,2.78
2022-08-11T18:46:06.377Z,2.67
2022-08-11T18:54:31.577Z,2.40
2022-08-11T19:00:11.334Z,2.25
2022-08-11T19:02:58.484Z,2.70
2022-08-11T19:08:58.279Z,2.67
2022-08-11T19:11:45.977Z,2.20
2022-08-11T19:14:33.651Z,2.55
2022-08-11T19:17:44.713Z,3.92
2022-08-11T19:20:30.043Z,2.10
2022-08-11T19:23:17.762Z,2.80
2022-08-11T19:28:55.837Z,2.60
2022-08-11T19:34:36.149Z,2.65
2022-08-11T19:40:11.968Z,2.60
2022-08-11T19:45:52.338Z,3.67
2022-08-11T19:48:40.203Z,2.83
2022-08-11T19:51:27.780Z,2.90
2022-08-11T19:54:14.974Z,2.65
2022-08-11T19:57:02.889Z,2.38
2022-08-11T19:59:50.770Z,3.00
2022-08-11T20:05:23.176Z,2.50
2022-08-11T20:08:09.910Z,2.70
2022-08-11T20:10:56.375Z,2.90
2022-08-11T20:13:44.931Z,2.75
2022-08-11T20:16:34.609Z,3.17
2022-08-11T20:22:15.412Z,3.65
2022-08-11T20:25:03.348Z,4.40
2022-08-11T20:27:52.417Z,3.53
2022-08-11T20:30:40.810Z,2.90
2022-08-11T20:33:28.384Z,3.38
2022-08-11T20:36:13.797Z,2.47
2022-08-11T20:39:00.287Z,2.70
2022-08-11T20:44:45.257Z,2.40
2022-08-11T20:47:33.294Z,2.60
2022-08-11T20:50:41.202Z,2.28
2022-08-11T20:53:29.460Z,2.97
2022-08-11T20:56:17.415Z,2.70
2022-08-11T20:59:21.808Z,2.25
2022-08-11T21:02:10.510Z,3.28
2022-08-11T21:04:57.624Z,2.78
2022-08-11T21:07:57.226Z,3.10
2022-08-11T21:10:50.548Z,2.85
2022-08-11T21:13:39.126Z,2.83
2022-08-11T21:16:27.577Z,2.63
2022-08-11T21:19:59.687Z,2.50
2022-08-11T21:22:59.314Z,3.00
2022-08-11T21:25:53.250Z,2.58
2022-08-11T21:31:27.364Z,2.80
2022-08-11T21:34:14.868Z,2.65
2022-08-11T21:42:39.299Z,2.95
2022-08-11T21:45:27.989Z,2.80
2022-08-11T21:53:48.616Z,2.53
2022-08-11T21:56:34.980Z,2.92
2022-08-11T21:59:22.321Z,3.08
2022-08-11T22:02:12.594Z,3.22
2022-08-11T22:04:58.709Z,2.80
2022-08-11T22:07:44.178Z,2.80
2022-08-11T22:10:42.537Z,2.90
2022-08-11T22:13:30.211Z,2.70
2022-08-11T22:16:17.390Z,3.10
2022-08-11T22:19:03.725Z,3.17
2022-08-11T22:22:02.721Z,3.20
2022-08-11T22:24:50.982Z,3.10
2022-08-11T22:27:36.770Z,3.22
2022-08-11T22:30:24.207Z,3.00
2022-08-11T22:33:12.055Z,3.15
2022-08-11T22:36:01.872Z,2.78
2022-08-11T22:38:47.593Z,2.83
2022-08-11T22:41:33.075Z,3.08
2022-08-11T22:44:18.727Z,2.70
2022-08-11T22:47:04.935Z,2.80
2022-08-11T22:49:57.171Z,2.75
2022-08-11T22:55:31.001Z,3.15
2022-08-11T22:58:16.852Z,2.72
2022-08-11T23:01:03.236Z,3.33
2022-08-11T23:03:50.455Z,2.78
2022-08-11T23:06:37.843Z,3.20
2022-08-11T23:09:23.938Z,2.85
2022-08-11T23:12:10.753Z,2.90
2022-08-11T23:14:59.995Z,3.22
2022-08-11T23:17:46.573Z,2.60
2022-08-11T23:23:23.637Z,3.00
2022-08-11T23:26:11.138Z,3.13
2022-08-11T23:28:56.835Z,2.60
2022-08-11T23:31:50.647Z,3.25
2022-08-11T23:34:41.729Z,3.22
2022-08-11T23:37:45.430Z,2.90
2022-08-11T23:40:32.069Z,2.72
2022-08-11T23:51:40.675Z,3.17
2022-08-11T23:54:27.769Z,2.83
2022-08-11T23:57:14.740Z,3.40
